UAE9314 YMML-VHHH
Flight info
| Callsign | UAE9314 |
|---|---|
| Flight time | N/A |
| Altitude | 28000 |
| Route | KEPPA3/34 KEPPA H336 NATYA J19 BHI T25 TNK J30 TN DCT BEDUG/N0506F300 DCT BUTPA A461 ZAM A583 KALAH/N0499F320 A583 SABNO V542 BETTY |
| Aircraft | B77L/H-SDE1E2E3FGHIJ2J3J4J5M1RWXY/LB1D1 |
Departure
| Time | N/A |
|---|---|
| Airport | Melbourne Airport (YMML) |
Arrival
| Time | 2026-05-04 12:31 |
|---|---|
| Airport | Hong Kong International Airport (VHHH) |
| Time | Latitude | Longitude | Altitude | Speed | Heading |
|---|---|---|---|---|---|
| 2026-05-04 11:59 | 19.89747 | 114.63399 | 33996 ft | 500 kts | 352° |
| 2026-05-04 12:00 | 19.93214 | 114.63140 | 33994 ft | 500 kts | 352° |
| 2026-05-04 12:00 | 20.00101 | 114.62572 | 33996 ft | 500 kts | 351° |
| 2026-05-04 12:01 | 20.07035 | 114.61977 | 33995 ft | 499 kts | 351° |
| 2026-05-04 12:02 | 20.31153 | 114.59928 | 34001 ft | 497 kts | 351° |
| 2026-05-04 12:03 | 20.38079 | 114.59337 | 33017 ft | 511 kts | 351° |
| 2026-05-04 12:03 | 20.41634 | 114.59032 | 32272 ft | 511 kts | 351° |
| 2026-05-04 12:03 | 20.45159 | 114.58736 | 31688 ft | 506 kts | 351° |
| 2026-05-04 12:04 | 20.47478 | 114.58541 | 31311 ft | 503 kts | 351° |
| 2026-05-04 12:04 | 20.50948 | 114.58248 | 30760 ft | 498 kts | 351° |
| 2026-05-04 12:04 | 20.54391 | 114.57955 | 30211 ft | 495 kts | 351° |
| 2026-05-04 12:04 | 20.58959 | 114.57565 | 29399 ft | 490 kts | 351° |
| 2026-05-04 12:05 | 20.62340 | 114.57275 | 28829 ft | 486 kts | 351° |
| 2026-05-04 12:05 | 20.64566 | 114.57080 | 28455 ft | 483 kts | 351° |
| 2026-05-04 12:05 | 20.68971 | 114.56691 | 27746 ft | 477 kts | 351° |
| 2026-05-04 12:05 | 20.72271 | 114.56399 | 27218 ft | 473 kts | 351° |
| 2026-05-04 12:06 | 20.75537 | 114.56110 | 26692 ft | 470 kts | 351° |
| 2026-05-04 12:06 | 20.78784 | 114.55823 | 26177 ft | 466 kts | 351° |
| 2026-05-04 12:06 | 20.82002 | 114.55539 | 25663 ft | 463 kts | 351° |
| 2026-05-04 12:06 | 20.85213 | 114.55291 | 25134 ft | 462 kts | 353° |
| 2026-05-04 12:07 | 20.87340 | 114.55258 | 24793 ft | 461 kts | 355° |
| 2026-05-04 12:07 | 20.91620 | 114.55299 | 24107 ft | 458 kts | 356° |
| 2026-05-04 12:07 | 20.94805 | 114.55352 | 23605 ft | 456 kts | 356° |
| 2026-05-04 12:07 | 20.96902 | 114.55387 | 23206 ft | 455 kts | 356° |
| 2026-05-04 12:08 | 21.00052 | 114.55434 | 22671 ft | 451 kts | 356° |
| 2026-05-04 12:08 | 21.03177 | 114.55474 | 22160 ft | 447 kts | 356° |
| 2026-05-04 12:08 | 21.07269 | 114.55518 | 21515 ft | 441 kts | 356° |
| 2026-05-04 12:08 | 21.09336 | 114.55538 | 21186 ft | 439 kts | 356° |
| 2026-05-04 12:09 | 21.13358 | 114.55575 | 20560 ft | 434 kts | 356° |
| 2026-05-04 12:09 | 21.16365 | 114.55602 | 20082 ft | 431 kts | 356° |
| 2026-05-04 12:09 | 21.18388 | 114.55620 | 19760 ft | 429 kts | 356° |
| 2026-05-04 12:09 | 21.21324 | 114.55647 | 19280 ft | 427 kts | 356° |
| 2026-05-04 12:10 | 21.24282 | 114.55674 | 18802 ft | 425 kts | 356° |
| 2026-05-04 12:10 | 21.27228 | 114.55701 | 18329 ft | 423 kts | 356° |
| 2026-05-04 12:10 | 21.30162 | 114.55728 | 17790 ft | 420 kts | 356° |
| 2026-05-04 12:10 | 21.33079 | 114.55755 | 17300 ft | 417 kts | 356° |
| 2026-05-04 12:11 | 21.35969 | 114.55782 | 16820 ft | 414 kts | 356° |
| 2026-05-04 12:11 | 21.38837 | 114.55809 | 16347 ft | 411 kts | 356° |
| 2026-05-04 12:11 | 21.41688 | 114.55836 | 15883 ft | 408 kts | 356° |
| 2026-05-04 12:11 | 21.44519 | 114.55863 | 15421 ft | 406 kts | 356° |
| 2026-05-04 12:12 | 21.47335 | 114.55887 | 14961 ft | 402 kts | 356° |
| 2026-05-04 12:12 | 21.50082 | 114.55576 | 14484 ft | 393 kts | 341° |
| 2026-05-04 12:12 | 21.52638 | 114.54623 | 14047 ft | 387 kts | 335° |
| 2026-05-04 12:12 | 21.55139 | 114.53649 | 13550 ft | 388 kts | 337° |
| 2026-05-04 12:13 | 21.57681 | 114.52740 | 13274 ft | 381 kts | 338° |
| 2026-05-04 12:14 | 21.69909 | 114.41636 | 11850 ft | 296 kts | 309° |
| 2026-05-04 12:15 | 21.71287 | 114.40034 | 11606 ft | 289 kts | 309° |
| 2026-05-04 12:15 | 21.72627 | 114.38478 | 11276 ft | 286 kts | 309° |
| 2026-05-04 12:15 | 21.73977 | 114.36910 | 10910 ft | 285 kts | 309° |
| 2026-05-04 12:15 | 21.75323 | 114.35349 | 10524 ft | 284 kts | 309° |
| 2026-05-04 12:16 | 21.76665 | 114.33794 | 10158 ft | 283 kts | 309° |
| 2026-05-04 12:16 | 21.78001 | 114.32245 | 9797 ft | 282 kts | 309° |
| 2026-05-04 12:16 | 21.79307 | 114.30735 | 9796 ft | 269 kts | 309° |
| 2026-05-04 12:16 | 21.80590 | 114.29247 | 9855 ft | 276 kts | 309° |
| 2026-05-04 12:17 | 21.81913 | 114.27710 | 9722 ft | 280 kts | 309° |
| 2026-05-04 12:17 | 21.83240 | 114.26172 | 9411 ft | 280 kts | 309° |
| 2026-05-04 12:17 | 21.84553 | 114.24650 | 9054 ft | 277 kts | 310° |
| 2026-05-04 12:17 | 21.85847 | 114.23150 | 8746 ft | 275 kts | 310° |
| 2026-05-04 12:18 | 21.87131 | 114.21661 | 8694 ft | 267 kts | 310° |
| 2026-05-04 12:18 | 21.88403 | 114.20186 | 8729 ft | 271 kts | 310° |
| 2026-05-04 12:18 | 21.89618 | 114.18644 | 8564 ft | 268 kts | 301° |
| 2026-05-04 12:18 | 21.90574 | 114.16937 | 8406 ft | 265 kts | 296° |
| 2026-05-04 12:19 | 21.91447 | 114.15199 | 8208 ft | 263 kts | 296° |
| 2026-05-04 12:19 | 21.92304 | 114.13474 | 8005 ft | 261 kts | 296° |
| 2026-05-04 12:19 | 21.93161 | 114.11758 | 7809 ft | 259 kts | 296° |
| 2026-05-04 12:19 | 21.94020 | 114.10056 | 7614 ft | 258 kts | 296° |
| 2026-05-04 12:20 | 21.94868 | 114.08387 | 7434 ft | 257 kts | 296° |
| 2026-05-04 12:20 | 21.95727 | 114.06703 | 7235 ft | 256 kts | 297° |
| 2026-05-04 12:20 | 21.96588 | 114.05023 | 7068 ft | 257 kts | 297° |
| 2026-05-04 12:20 | 21.97454 | 114.03335 | 6879 ft | 258 kts | 297° |
| 2026-05-04 12:21 | 21.98329 | 114.01634 | 6684 ft | 260 kts | 297° |
| 2026-05-04 12:21 | 21.99207 | 113.99930 | 6502 ft | 260 kts | 297° |
| 2026-05-04 12:21 | 22.00085 | 113.98224 | 6313 ft | 261 kts | 297° |
| 2026-05-04 12:21 | 22.00970 | 113.96507 | 6069 ft | 262 kts | 297° |
| 2026-05-04 12:22 | 22.01853 | 113.94792 | 5815 ft | 261 kts | 297° |
| 2026-05-04 12:22 | 22.02728 | 113.93093 | 5550 ft | 257 kts | 297° |
| 2026-05-04 12:22 | 22.03595 | 113.91410 | 5292 ft | 256 kts | 298° |
| 2026-05-04 12:22 | 22.04448 | 113.89754 | 5071 ft | 256 kts | 298° |
| 2026-05-04 12:23 | 22.05314 | 113.88072 | 4826 ft | 257 kts | 298° |
| 2026-05-04 12:23 | 22.06175 | 113.86398 | 4698 ft | 253 kts | 298° |
| 2026-05-04 12:23 | 22.07036 | 113.84726 | 4669 ft | 258 kts | 298° |
| 2026-05-04 12:23 | 22.07914 | 113.83018 | 4483 ft | 264 kts | 298° |
| 2026-05-04 12:24 | 22.08805 | 113.81284 | 4264 ft | 265 kts | 298° |
| 2026-05-04 12:24 | 22.09681 | 113.79581 | 4098 ft | 263 kts | 298° |
| 2026-05-04 12:24 | 22.10621 | 113.77938 | 3878 ft | 252 kts | 313° |
| 2026-05-04 12:24 | 22.12006 | 113.76900 | 3696 ft | 235 kts | 337° |
| 2026-05-04 12:25 | 22.13449 | 113.76210 | 3596 ft | 220 kts | 336° |
| 2026-05-04 12:25 | 22.14784 | 113.75542 | 3431 ft | 203 kts | 336° |
| 2026-05-04 12:25 | 22.16041 | 113.74913 | 3295 ft | 196 kts | 337° |
| 2026-05-04 12:25 | 22.17238 | 113.74313 | 3105 ft | 189 kts | 338° |
| 2026-05-04 12:26 | 22.18432 | 113.73719 | 2972 ft | 190 kts | 338° |
| 2026-05-04 12:26 | 22.19671 | 113.73254 | 2801 ft | 187 kts | 0° |
| 2026-05-04 12:26 | 22.20867 | 113.73641 | 2695 ft | 180 kts | 32° |
| 2026-05-04 12:26 | 22.21980 | 113.74291 | 2642 ft | 181 kts | 31° |
| 2026-05-04 12:27 | 22.23102 | 113.74927 | 2565 ft | 182 kts | 31° |
| 2026-05-04 12:27 | 22.24227 | 113.75570 | 2431 ft | 181 kts | 34° |
| 2026-05-04 12:27 | 22.25049 | 113.76515 | 2267 ft | 172 kts | 65° |
| 2026-05-04 12:27 | 22.25548 | 113.77670 | 2134 ft | 172 kts | 66° |
| 2026-05-04 12:28 | 22.26051 | 113.78839 | 1961 ft | 171 kts | 69° |
| 2026-05-04 12:28 | 22.26475 | 113.80031 | 1787 ft | 169 kts | 72° |
| 2026-05-04 12:28 | 22.26860 | 113.81212 | 1644 ft | 164 kts | 72° |
| 2026-05-04 12:28 | 22.27224 | 113.82345 | 1439 ft | 154 kts | 72° |
| 2026-05-04 12:29 | 22.27565 | 113.83402 | 1242 ft | 145 kts | 73° |
| 2026-05-04 12:29 | 22.27894 | 113.84432 | 1057 ft | 145 kts | 72° |
| 2026-05-04 12:29 | 22.28140 | 113.85197 | 923 ft | 146 kts | 71° |
| 2026-05-04 12:29 | 22.28474 | 113.86236 | 756 ft | 147 kts | 72° |
| 2026-05-04 12:30 | 22.28802 | 113.87258 | 579 ft | 144 kts | 72° |
| 2026-05-04 12:30 | 22.29131 | 113.88278 | 374 ft | 143 kts | 71° |
| 2026-05-04 12:30 | 22.29449 | 113.89270 | 228 ft | 140 kts | 71° |
| 2026-05-04 12:30 | 22.29770 | 113.90251 | 44 ft | 130 kts | 71° |
| 2026-05-04 12:31 | 22.30021 | 113.91048 | 42 ft | 88 kts | 70° |
| 2026-05-04 12:31 | 22.30166 | 113.91496 | 42 ft | 51 kts | 71° |
| 2026-05-04 12:31 | 22.30279 | 113.91839 | 42 ft | 41 kts | 70° |
| 2026-05-04 12:31 | 22.30360 | 113.92097 | 43 ft | 28 kts | 75° |
| 2026-05-04 12:32 | 22.30367 | 113.92259 | 43 ft | 21 kts | 96° |
| 2026-05-04 12:32 | 22.30330 | 113.92524 | 41 ft | 15 kts | 86° |
| 2026-05-04 12:32 | 22.30352 | 113.92628 | 41 ft | 12 kts | 72° |
| 2026-05-04 12:33 | 22.30334 | 113.92695 | 41 ft | 10 kts | 147° |
| 2026-05-04 12:33 | 22.30267 | 113.92722 | 41 ft | 10 kts | 161° |
| 2026-05-04 12:33 | 22.30198 | 113.92739 | 41 ft | 10 kts | 189° |
| 2026-05-04 12:33 | 22.30151 | 113.92682 | 41 ft | 11 kts | 249° |
| 2026-05-04 12:34 | 22.30127 | 113.92607 | 41 ft | 11 kts | 250° |
| 2026-05-04 12:34 | 22.30103 | 113.92533 | 41 ft | 11 kts | 251° |
| 2026-05-04 12:34 | 22.30079 | 113.92458 | 41 ft | 11 kts | 251° |
| 2026-05-04 12:34 | 22.30054 | 113.92383 | 41 ft | 11 kts | 251° |
| 2026-05-04 12:35 | 22.30021 | 113.92320 | 41 ft | 10 kts | 198° |
| 2026-05-04 12:35 | 22.29961 | 113.92332 | 41 ft | 6 kts | 160° |
| 2026-05-04 12:35 | 22.29934 | 113.92343 | 41 ft | 0 kts | 160° |